sensor_id;sensor_type;location;lat;lon;timestamp;P1;durP1;ratioP1;P2;durP2;ratioP2
16735;SDS011;17990;49.548;9.730;2022-09-30T00:00:56;22.63;;;6.37;;
16735;SDS011;17990;49.548;9.730;2022-09-30T00:03:23;25.37;;;6.30;;
16735;SDS011;17990;49.548;9.730;2022-09-30T00:05:56;15.47;;;6.03;;
16735;SDS011;17990;49.548;9.730;2022-09-30T00:08:24;20.93;;;7.80;;
16735;SDS011;17990;49.548;9.730;2022-09-30T00:10:58;19.90;;;7.03;;
16735;SDS011;17990;49.548;9.730;2022-09-30T00:13:27;13.77;;;6.40;;
16735;SDS011;17990;49.548;9.730;2022-09-30T00:15:56;16.37;;;6.47;;
16735;SDS011;17990;49.548;9.730;2022-09-30T00:18:24;14.10;;;6.63;;
16735;SDS011;17990;49.548;9.730;2022-09-30T00:20:51;24.47;;;6.37;;
16735;SDS011;17990;49.548;9.730;2022-09-30T00:23:18;24.10;;;6.10;;
16735;SDS011;17990;49.548;9.730;2022-09-30T00:25:45;49.10;;;7.10;;
16735;SDS011;17990;49.548;9.730;2022-09-30T00:28:13;21.17;;;6.43;;
16735;SDS011;17990;49.548;9.730;2022-09-30T00:30:40;16.37;;;6.40;;
16735;SDS011;17990;49.548;9.730;2022-09-30T00:33:09;25.87;;;6.87;;
16735;SDS011;17990;49.548;9.730;2022-09-30T00:35:36;23.53;;;6.40;;
16735;SDS011;17990;49.548;9.730;2022-09-30T00:38:03;25.03;;;7.40;;
16735;SDS011;17990;49.548;9.730;2022-09-30T00:40:30;45.87;;;7.17;;
16735;SDS011;17990;49.548;9.730;2022-09-30T00:42:57;16.63;;;6.50;;
16735;SDS011;17990;49.548;9.730;2022-09-30T00:45:25;20.97;;;5.97;;
16735;SDS011;17990;49.548;9.730;2022-09-30T00:47:54;46.13;;;7.03;;
16735;SDS011;17990;49.548;9.730;2022-09-30T00:50:35;49.63;;;7.27;;
16735;SDS011;17990;49.548;9.730;2022-09-30T00:53:11;30.00;;;6.33;;
16735;SDS011;17990;49.548;9.730;2022-09-30T00:55:46;25.93;;;6.47;;
16735;SDS011;17990;49.548;9.730;2022-09-30T00:58:20;74.27;;;8.53;;
16735;SDS011;17990;49.548;9.730;2022-09-30T01:00:51;56.53;;;7.80;;
16735;SDS011;17990;49.548;9.730;2022-09-30T01:03:18;51.63;;;6.57;;
16735;SDS011;17990;49.548;9.730;2022-09-30T01:05:48;77.97;;;8.23;;
16735;SDS011;17990;49.548;9.730;2022-09-30T01:08:17;56.83;;;7.17;;
16735;SDS011;17990;49.548;9.730;2022-09-30T01:10:46;42.20;;;5.97;;
16735;SDS011;17990;49.548;9.730;2022-09-30T01:13:13;42.17;;;6.53;;
16735;SDS011;17990;49.548;9.730;2022-09-30T01:16:05;102.30;;;7.60;;
16735;SDS011;17990;49.548;9.730;2022-09-30T01:18:53;63.27;;;7.10;;
16735;SDS011;17990;49.548;9.730;2022-09-30T01:22:02;53.43;;;7.27;;
16735;SDS011;17990;49.548;9.730;2022-09-30T01:24:39;104.30;;;8.57;;
16735;SDS011;17990;49.548;9.730;2022-09-30T01:28:00;89.97;;;9.20;;
16735;SDS011;17990;49.548;9.730;2022-09-30T01:31:12;37.97;;;7.23;;
16735;SDS011;17990;49.548;9.730;2022-09-30T01:33:59;51.43;;;7.83;;
16735;SDS011;17990;49.548;9.730;2022-09-30T01:36:37;45.97;;;7.00;;
16735;SDS011;17990;49.548;9.730;2022-09-30T01:39:23;58.77;;;7.27;;
16735;SDS011;17990;49.548;9.730;2022-09-30T01:41:58;34.37;;;6.30;;
16735;SDS011;17990;49.548;9.730;2022-09-30T01:44:34;21.20;;;7.10;;
16735;SDS011;17990;49.548;9.730;2022-09-30T01:47:14;49.00;;;7.60;;
16735;SDS011;17990;49.548;9.730;2022-09-30T01:49:51;68.97;;;9.83;;
16735;SDS011;17990;49.548;9.730;2022-09-30T01:52:36;20.67;;;7.50;;
16735;SDS011;17990;49.548;9.730;2022-09-30T01:55:07;22.10;;;6.80;;
16735;SDS011;17990;49.548;9.730;2022-09-30T01:57:41;23.37;;;6.60;;
16735;SDS011;17990;49.548;9.730;2022-09-30T02:00:11;19.63;;;6.00;;
16735;SDS011;17990;49.548;9.730;2022-09-30T02:02:42;36.77;;;6.60;;
16735;SDS011;17990;49.548;9.730;2022-09-30T02:05:16;31.23;;;6.53;;
16735;SDS011;17990;49.548;9.730;2022-09-30T02:07:48;29.73;;;7.47;;
16735;SDS011;17990;49.548;9.730;2022-09-30T02:10:20;17.00;;;5.90;;
16735;SDS011;17990;49.548;9.730;2022-09-30T02:12:51;46.73;;;6.67;;
16735;SDS011;17990;49.548;9.730;2022-09-30T02:15:24;15.93;;;5.93;;
16735;SDS011;17990;49.548;9.730;2022-09-30T02:18:00;25.00;;;5.70;;
16735;SDS011;17990;49.548;9.730;2022-09-30T02:20:37;69.37;;;6.23;;
16735;SDS011;17990;49.548;9.730;2022-09-30T02:23:08;57.23;;;7.03;;
16735;SDS011;17990;49.548;9.730;2022-09-30T02:25:41;25.97;;;5.70;;
16735;SDS011;17990;49.548;9.730;2022-09-30T02:28:13;56.50;;;6.10;;
16735;SDS011;17990;49.548;9.730;2022-09-30T02:30:45;42.70;;;7.10;;
16735;SDS011;17990;49.548;9.730;2022-09-30T02:33:18;22.80;;;7.30;;
16735;SDS011;17990;49.548;9.730;2022-09-30T02:35:51;28.50;;;6.23;;
16735;SDS011;17990;49.548;9.730;2022-09-30T02:38:22;22.77;;;6.43;;
16735;SDS011;17990;49.548;9.730;2022-09-30T02:40:55;57.53;;;6.97;;
16735;SDS011;17990;49.548;9.730;2022-09-30T02:43:28;34.53;;;7.20;;
16735;SDS011;17990;49.548;9.730;2022-09-30T02:46:02;49.33;;;7.40;;
16735;SDS011;17990;49.548;9.730;2022-09-30T02:48:38;53.23;;;7.50;;
16735;SDS011;17990;49.548;9.730;2022-09-30T02:51:14;50.87;;;7.53;;
16735;SDS011;17990;49.548;9.730;2022-09-30T02:53:45;32.23;;;7.37;;
16735;SDS011;17990;49.548;9.730;2022-09-30T02:56:24;22.80;;;7.77;;
16735;SDS011;17990;49.548;9.730;2022-09-30T02:59:02;57.23;;;8.60;;
16735;SDS011;17990;49.548;9.730;2022-09-30T03:01:30;32.77;;;7.03;;
16735;SDS011;17990;49.548;9.730;2022-09-30T03:03:58;60.90;;;7.93;;
16735;SDS011;17990;49.548;9.730;2022-09-30T03:06:29;41.03;;;7.07;;
16735;SDS011;17990;49.548;9.730;2022-09-30T03:08:56;29.97;;;6.70;;
16735;SDS011;17990;49.548;9.730;2022-09-30T03:11:24;41.93;;;7.33;;
16735;SDS011;17990;49.548;9.730;2022-09-30T03:13:57;66.80;;;8.70;;
16735;SDS011;17990;49.548;9.730;2022-09-30T03:17:12;43.27;;;7.43;;
16735;SDS011;17990;49.548;9.730;2022-09-30T03:20:02;96.13;;;11.27;;
16735;SDS011;17990;49.548;9.730;2022-09-30T03:22:52;38.70;;;7.70;;
16735;SDS011;17990;49.548;9.730;2022-09-30T03:25:40;82.33;;;8.37;;
16735;SDS011;17990;49.548;9.730;2022-09-30T03:28:17;75.73;;;7.57;;
16735;SDS011;17990;49.548;9.730;2022-09-30T03:30:53;22.40;;;6.47;;
16735;SDS011;17990;49.548;9.730;2022-09-30T03:33:31;37.23;;;6.93;;
16735;SDS011;17990;49.548;9.730;2022-09-30T03:36:08;62.40;;;8.90;;
16735;SDS011;17990;49.548;9.730;2022-09-30T03:38:44;13.37;;;5.97;;
16735;SDS011;17990;49.548;9.730;2022-09-30T03:41:18;16.63;;;6.67;;
16735;SDS011;17990;49.548;9.730;2022-09-30T03:43:52;25.07;;;7.50;;
16735;SDS011;17990;49.548;9.730;2022-09-30T03:46:28;28.20;;;6.23;;
16735;SDS011;17990;49.548;9.730;2022-09-30T03:49:00;23.87;;;6.63;;
16735;SDS011;17990;49.548;9.730;2022-09-30T03:51:32;63.33;;;8.20;;
16735;SDS011;17990;49.548;9.730;2022-09-30T03:54:05;21.43;;;6.43;;
16735;SDS011;17990;49.548;9.730;2022-09-30T03:56:34;17.43;;;6.23;;
16735;SDS011;17990;49.548;9.730;2022-09-30T03:59:08;20.73;;;6.00;;
16735;SDS011;17990;49.548;9.730;2022-09-30T04:01:37;47.70;;;7.13;;
16735;SDS011;17990;49.548;9.730;2022-09-30T04:04:05;41.23;;;8.20;;
16735;SDS011;17990;49.548;9.730;2022-09-30T04:06:33;54.97;;;9.43;;
16735;SDS011;17990;49.548;9.730;2022-09-30T04:09:00;25.87;;;7.80;;
16735;SDS011;17990;49.548;9.730;2022-09-30T04:11:27;26.67;;;8.57;;
16735;SDS011;17990;49.548;9.730;2022-09-30T04:13:54;31.80;;;7.77;;
16735;SDS011;17990;49.548;9.730;2022-09-30T04:16:20;10.87;;;7.13;;
16735;SDS011;17990;49.548;9.730;2022-09-30T04:18:47;17.27;;;7.57;;
16735;SDS011;17990;49.548;9.730;2022-09-30T04:21:15;13.90;;;7.07;;
16735;SDS011;17990;49.548;9.730;2022-09-30T04:23:44;17.20;;;7.20;;
16735;SDS011;17990;49.548;9.730;2022-09-30T04:26:12;15.90;;;7.23;;
16735;SDS011;17990;49.548;9.730;2022-09-30T04:28:41;23.37;;;8.97;;
16735;SDS011;17990;49.548;9.730;2022-09-30T04:31:09;12.43;;;8.03;;
16735;SDS011;17990;49.548;9.730;2022-09-30T04:33:36;32.93;;;7.80;;
16735;SDS011;17990;49.548;9.730;2022-09-30T04:36:04;14.60;;;7.70;;
16735;SDS011;17990;49.548;9.730;2022-09-30T04:38:31;51.50;;;9.67;;
16735;SDS011;17990;49.548;9.730;2022-09-30T04:41:02;39.23;;;10.33;;
16735;SDS011;17990;49.548;9.730;2022-09-30T04:43:30;24.33;;;8.07;;
16735;SDS011;17990;49.548;9.730;2022-09-30T04:45:59;33.00;;;8.87;;
16735;SDS011;17990;49.548;9.730;2022-09-30T04:48:26;23.40;;;9.37;;
16735;SDS011;17990;49.548;9.730;2022-09-30T04:50:56;50.27;;;8.93;;
16735;SDS011;17990;49.548;9.730;2022-09-30T04:53:24;28.30;;;9.40;;
16735;SDS011;17990;49.548;9.730;2022-09-30T04:55:56;43.47;;;8.20;;
16735;SDS011;17990;49.548;9.730;2022-09-30T04:58:26;39.37;;;9.13;;
16735;SDS011;17990;49.548;9.730;2022-09-30T05:00:58;24.77;;;8.70;;
16735;SDS011;17990;49.548;9.730;2022-09-30T05:03:26;30.03;;;8.60;;
16735;SDS011;17990;49.548;9.730;2022-09-30T05:05:54;36.43;;;8.43;;
16735;SDS011;17990;49.548;9.730;2022-09-30T05:08:20;18.90;;;8.67;;
16735;SDS011;17990;49.548;9.730;2022-09-30T05:10:52;22.67;;;8.10;;
16735;SDS011;17990;49.548;9.730;2022-09-30T05:13:21;30.47;;;8.57;;
16735;SDS011;17990;49.548;9.730;2022-09-30T05:15:50;28.30;;;9.17;;
16735;SDS011;17990;49.548;9.730;2022-09-30T05:18:18;26.27;;;8.87;;
16735;SDS011;17990;49.548;9.730;2022-09-30T05:20:47;19.90;;;8.27;;
16735;SDS011;17990;49.548;9.730;2022-09-30T05:23:15;18.80;;;8.63;;
16735;SDS011;17990;49.548;9.730;2022-09-30T05:25:43;29.37;;;8.50;;
16735;SDS011;17990;49.548;9.730;2022-09-30T05:28:11;50.80;;;9.13;;
16735;SDS011;17990;49.548;9.730;2022-09-30T05:30:39;25.87;;;8.77;;
16735;SDS011;17990;49.548;9.730;2022-09-30T05:33:09;13.43;;;9.07;;
16735;SDS011;17990;49.548;9.730;2022-09-30T05:35:37;20.70;;;11.43;;
16735;SDS011;17990;49.548;9.730;2022-09-30T05:38:05;27.10;;;9.93;;
16735;SDS011;17990;49.548;9.730;2022-09-30T05:40:35;19.43;;;10.53;;
16735;SDS011;17990;49.548;9.730;2022-09-30T05:43:03;24.97;;;10.03;;
16735;SDS011;17990;49.548;9.730;2022-09-30T05:45:30;38.30;;;10.87;;
16735;SDS011;17990;49.548;9.730;2022-09-30T05:47:57;19.93;;;9.63;;
16735;SDS011;17990;49.548;9.730;2022-09-30T05:50:26;31.20;;;9.63;;
16735;SDS011;17990;49.548;9.730;2022-09-30T05:52:53;21.80;;;9.63;;
16735;SDS011;17990;49.548;9.730;2022-09-30T05:55:21;19.97;;;9.10;;
16735;SDS011;17990;49.548;9.730;2022-09-30T05:57:49;24.07;;;8.23;;
16735;SDS011;17990;49.548;9.730;2022-09-30T06:00:17;11.17;;;8.70;;
16735;SDS011;17990;49.548;9.730;2022-09-30T06:02:45;11.57;;;8.07;;
16735;SDS011;17990;49.548;9.730;2022-09-30T06:05:16;15.30;;;7.63;;
16735;SDS011;17990;49.548;9.730;2022-09-30T06:07:44;21.20;;;8.50;;
16735;SDS011;17990;49.548;9.730;2022-09-30T06:10:11;10.97;;;7.37;;
16735;SDS011;17990;49.548;9.730;2022-09-30T06:12:38;15.03;;;7.90;;
16735;SDS011;17990;49.548;9.730;2022-09-30T06:15:05;13.40;;;7.40;;
16735;SDS011;17990;49.548;9.730;2022-09-30T06:17:34;24.43;;;7.57;;
16735;SDS011;17990;49.548;9.730;2022-09-30T06:20:01;15.40;;;8.00;;
16735;SDS011;17990;49.548;9.730;2022-09-30T06:22:30;18.77;;;6.67;;
16735;SDS011;17990;49.548;9.730;2022-09-30T06:25:01;10.67;;;6.87;;
16735;SDS011;17990;49.548;9.730;2022-09-30T06:27:29;15.53;;;7.10;;
16735;SDS011;17990;49.548;9.730;2022-09-30T06:29:58;12.40;;;7.57;;
16735;SDS011;17990;49.548;9.730;2022-09-30T06:32:25;28.70;;;7.10;;
16735;SDS011;17990;49.548;9.730;2022-09-30T06:34:52;9.07;;;6.53;;
16735;SDS011;17990;49.548;9.730;2022-09-30T06:37:20;13.60;;;6.67;;
16735;SDS011;17990;49.548;9.730;2022-09-30T06:39:47;23.27;;;6.70;;
16735;SDS011;17990;49.548;9.730;2022-09-30T06:42:16;23.17;;;7.07;;
16735;SDS011;17990;49.548;9.730;2022-09-30T06:44:44;13.27;;;6.63;;
16735;SDS011;17990;49.548;9.730;2022-09-30T06:47:11;21.93;;;7.27;;
16735;SDS011;17990;49.548;9.730;2022-09-30T06:49:38;78.13;;;9.50;;
16735;SDS011;17990;49.548;9.730;2022-09-30T06:52:07;11.57;;;7.03;;
16735;SDS011;17990;49.548;9.730;2022-09-30T06:54:35;11.43;;;6.57;;
16735;SDS011;17990;49.548;9.730;2022-09-30T06:57:02;20.03;;;6.50;;
16735;SDS011;17990;49.548;9.730;2022-09-30T06:59:31;17.67;;;7.03;;
16735;SDS011;17990;49.548;9.730;2022-09-30T07:01:58;38.07;;;9.77;;
16735;SDS011;17990;49.548;9.730;2022-09-30T07:04:25;11.73;;;7.43;;
16735;SDS011;17990;49.548;9.730;2022-09-30T07:06:52;17.00;;;9.87;;
16735;SDS011;17990;49.548;9.730;2022-09-30T07:09:18;20.97;;;9.53;;
16735;SDS011;17990;49.548;9.730;2022-09-30T07:11:45;13.13;;;6.83;;
16735;SDS011;17990;49.548;9.730;2022-09-30T07:14:13;10.87;;;7.90;;
16735;SDS011;17990;49.548;9.730;2022-09-30T07:16:41;8.13;;;6.53;;
16735;SDS011;17990;49.548;9.730;2022-09-30T07:19:09;11.33;;;6.47;;
16735;SDS011;17990;49.548;9.730;2022-09-30T07:21:36;12.47;;;6.47;;
16735;SDS011;17990;49.548;9.730;2022-09-30T07:24:03;34.17;;;5.50;;
16735;SDS011;17990;49.548;9.730;2022-09-30T07:26:30;8.13;;;6.30;;
16735;SDS011;17990;49.548;9.730;2022-09-30T07:28:58;14.97;;;6.50;;
16735;SDS011;17990;49.548;9.730;2022-09-30T07:31:25;34.10;;;6.90;;
16735;SDS011;17990;49.548;9.730;2022-09-30T07:33:54;11.33;;;6.50;;
16735;SDS011;17990;49.548;9.730;2022-09-30T07:36:22;8.70;;;6.67;;
16735;SDS011;17990;49.548;9.730;2022-09-30T07:38:53;11.70;;;6.33;;
16735;SDS011;17990;49.548;9.730;2022-09-30T07:41:22;15.07;;;5.90;;
16735;SDS011;17990;49.548;9.730;2022-09-30T07:43:53;15.63;;;6.17;;
16735;SDS011;17990;49.548;9.730;2022-09-30T07:46:23;20.47;;;5.60;;
16735;SDS011;17990;49.548;9.730;2022-09-30T07:48:56;22.07;;;5.97;;
16735;SDS011;17990;49.548;9.730;2022-09-30T07:51:28;23.13;;;6.40;;
16735;SDS011;17990;49.548;9.730;2022-09-30T07:53:58;8.87;;;5.60;;
16735;SDS011;17990;49.548;9.730;2022-09-30T07:56:29;24.57;;;6.43;;
16735;SDS011;17990;49.548;9.730;2022-09-30T07:58:56;11.63;;;7.00;;
16735;SDS011;17990;49.548;9.730;2022-09-30T08:01:25;9.00;;;6.27;;
16735;SDS011;17990;49.548;9.730;2022-09-30T08:03:57;9.17;;;6.50;;
16735;SDS011;17990;49.548;9.730;2022-09-30T08:06:27;21.53;;;6.47;;
16735;SDS011;17990;49.548;9.730;2022-09-30T08:08:56;21.03;;;5.83;;
16735;SDS011;17990;49.548;9.730;2022-09-30T08:11:24;21.40;;;6.57;;
16735;SDS011;17990;49.548;9.730;2022-09-30T08:13:51;6.10;;;5.20;;
16735;SDS011;17990;49.548;9.730;2022-09-30T08:16:20;7.10;;;5.13;;
16735;SDS011;17990;49.548;9.730;2022-09-30T08:18:52;17.67;;;5.60;;
16735;SDS011;17990;49.548;9.730;2022-09-30T08:21:21;11.40;;;9.17;;
16735;SDS011;17990;49.548;9.730;2022-09-30T08:23:48;15.93;;;7.00;;
16735;SDS011;17990;49.548;9.730;2022-09-30T08:26:15;8.07;;;6.33;;
16735;SDS011;17990;49.548;9.730;2022-09-30T08:28:43;7.83;;;6.00;;
16735;SDS011;17990;49.548;9.730;2022-09-30T08:31:12;7.83;;;5.30;;
16735;SDS011;17990;49.548;9.730;2022-09-30T08:33:42;7.40;;;5.03;;
16735;SDS011;17990;49.548;9.730;2022-09-30T08:36:10;9.27;;;5.37;;
16735;SDS011;17990;49.548;9.730;2022-09-30T08:38:41;8.07;;;4.93;;
16735;SDS011;17990;49.548;9.730;2022-09-30T08:41:15;9.10;;;5.23;;
16735;SDS011;17990;49.548;9.730;2022-09-30T08:44:10;11.83;;;5.90;;
16735;SDS011;17990;49.548;9.730;2022-09-30T08:46:52;6.50;;;5.70;;
16735;SDS011;17990;49.548;9.730;2022-09-30T08:49:30;6.27;;;5.67;;
16735;SDS011;17990;49.548;9.730;2022-09-30T08:52:10;9.90;;;5.77;;
16735;SDS011;17990;49.548;9.730;2022-09-30T08:54:45;9.87;;;5.80;;
16735;SDS011;17990;49.548;9.730;2022-09-30T08:57:15;7.70;;;6.10;;
16735;SDS011;17990;49.548;9.730;2022-09-30T08:59:43;8.50;;;6.23;;
16735;SDS011;17990;49.548;9.730;2022-09-30T09:02:14;6.93;;;6.13;;
16735;SDS011;17990;49.548;9.730;2022-09-30T09:04:47;8.90;;;6.37;;
16735;SDS011;17990;49.548;9.730;2022-09-30T09:07:20;9.90;;;5.70;;
16735;SDS011;17990;49.548;9.730;2022-09-30T09:10:05;7.03;;;5.50;;
16735;SDS011;17990;49.548;9.730;2022-09-30T09:12:46;8.23;;;5.93;;
16735;SDS011;17990;49.548;9.730;2022-09-30T09:15:22;6.00;;;5.03;;
16735;SDS011;17990;49.548;9.730;2022-09-30T09:18:22;7.70;;;5.37;;
16735;SDS011;17990;49.548;9.730;2022-09-30T09:21:16;10.23;;;6.77;;
16735;SDS011;17990;49.548;9.730;2022-09-30T09:23:49;6.70;;;4.97;;
16735;SDS011;17990;49.548;9.730;2022-09-30T09:26:20;6.30;;;5.40;;
16735;SDS011;17990;49.548;9.730;2022-09-30T09:28:51;6.80;;;5.67;;
16735;SDS011;17990;49.548;9.730;2022-09-30T09:31:34;6.23;;;5.50;;
16735;SDS011;17990;49.548;9.730;2022-09-30T09:34:07;7.80;;;6.43;;
16735;SDS011;17990;49.548;9.730;2022-09-30T09:36:43;7.97;;;5.97;;
16735;SDS011;17990;49.548;9.730;2022-09-30T09:39:33;7.53;;;6.00;;
16735;SDS011;17990;49.548;9.730;2022-09-30T09:42:23;9.93;;;6.57;;
16735;SDS011;17990;49.548;9.730;2022-09-30T09:45:09;7.33;;;5.70;;
16735;SDS011;17990;49.548;9.730;2022-09-30T09:47:48;8.97;;;5.80;;
16735;SDS011;17990;49.548;9.730;2022-09-30T09:50:16;8.37;;;7.10;;
16735;SDS011;17990;49.548;9.730;2022-09-30T09:52:56;6.93;;;6.23;;
16735;SDS011;17990;49.548;9.730;2022-09-30T09:55:40;7.00;;;6.07;;
16735;SDS011;17990;49.548;9.730;2022-09-30T09:58:11;7.47;;;6.50;;
16735;SDS011;17990;49.548;9.730;2022-09-30T10:00:41;8.67;;;7.57;;
16735;SDS011;17990;49.548;9.730;2022-09-30T10:03:37;8.43;;;6.27;;
16735;SDS011;17990;49.548;9.730;2022-09-30T10:06:05;7.17;;;5.80;;
16735;SDS011;17990;49.548;9.730;2022-09-30T10:08:34;6.77;;;6.13;;
16735;SDS011;17990;49.548;9.730;2022-09-30T10:11:04;7.73;;;6.50;;
16735;SDS011;17990;49.548;9.730;2022-09-30T10:13:43;6.60;;;5.90;;
16735;SDS011;17990;49.548;9.730;2022-09-30T10:16:24;9.13;;;6.80;;
16735;SDS011;17990;49.548;9.730;2022-09-30T10:18:54;8.33;;;6.77;;
16735;SDS011;17990;49.548;9.730;2022-09-30T10:21:22;10.33;;;6.20;;
16735;SDS011;17990;49.548;9.730;2022-09-30T10:23:50;7.67;;;6.30;;
16735;SDS011;17990;49.548;9.730;2022-09-30T10:26:18;8.17;;;6.57;;
16735;SDS011;17990;49.548;9.730;2022-09-30T10:28:49;7.33;;;6.10;;
16735;SDS011;17990;49.548;9.730;2022-09-30T10:31:21;6.70;;;6.00;;
16735;SDS011;17990;49.548;9.730;2022-09-30T10:33:52;9.53;;;7.47;;
16735;SDS011;17990;49.548;9.730;2022-09-30T10:36:23;8.80;;;7.10;;
16735;SDS011;17990;49.548;9.730;2022-09-30T10:38:58;8.37;;;6.20;;
16735;SDS011;17990;49.548;9.730;2022-09-30T10:41:28;6.90;;;6.03;;
16735;SDS011;17990;49.548;9.730;2022-09-30T10:43:59;8.43;;;6.77;;
16735;SDS011;17990;49.548;9.730;2022-09-30T10:46:30;8.27;;;6.93;;
16735;SDS011;17990;49.548;9.730;2022-09-30T10:49:06;9.90;;;7.30;;
16735;SDS011;17990;49.548;9.730;2022-09-30T10:51:35;8.40;;;6.20;;
16735;SDS011;17990;49.548;9.730;2022-09-30T10:54:04;8.40;;;7.10;;
16735;SDS011;17990;49.548;9.730;2022-09-30T10:56:38;7.83;;;6.20;;
16735;SDS011;17990;49.548;9.730;2022-09-30T10:59:13;6.93;;;5.80;;
16735;SDS011;17990;49.548;9.730;2022-09-30T11:01:55;6.37;;;5.43;;
16735;SDS011;17990;49.548;9.730;2022-09-30T11:04:33;8.70;;;5.90;;
16735;SDS011;17990;49.548;9.730;2022-09-30T11:07:11;7.33;;;5.60;;
16735;SDS011;17990;49.548;9.730;2022-09-30T11:09:45;8.67;;;4.57;;
16735;SDS011;17990;49.548;9.730;2022-09-30T11:12:19;6.27;;;5.67;;
16735;SDS011;17990;49.548;9.730;2022-09-30T11:14:59;8.97;;;5.57;;
16735;SDS011;17990;49.548;9.730;2022-09-30T11:17:37;7.57;;;5.43;;
16735;SDS011;17990;49.548;9.730;2022-09-30T11:20:15;6.50;;;5.17;;
16735;SDS011;17990;49.548;9.730;2022-09-30T11:22:49;5.20;;;3.27;;
16735;SDS011;17990;49.548;9.730;2022-09-30T11:25:24;4.53;;;2.60;;
16735;SDS011;17990;49.548;9.730;2022-09-30T11:31:03;2.40;;;1.63;;
16735;SDS011;17990;49.548;9.730;2022-09-30T11:33:47;4.57;;;1.70;;
16735;SDS011;17990;49.548;9.730;2022-09-30T11:36:27;4.80;;;2.93;;
16735;SDS011;17990;49.548;9.730;2022-09-30T11:39:05;3.47;;;2.40;;
16735;SDS011;17990;49.548;9.730;2022-09-30T11:41:50;5.90;;;3.27;;
16735;SDS011;17990;49.548;9.730;2022-09-30T11:44:26;9.20;;;4.43;;
16735;SDS011;17990;49.548;9.730;2022-09-30T11:47:03;4.40;;;2.30;;
16735;SDS011;17990;49.548;9.730;2022-09-30T11:49:58;2.67;;;1.30;;
16735;SDS011;17990;49.548;9.730;2022-09-30T11:52:41;2.50;;;1.20;;
16735;SDS011;17990;49.548;9.730;2022-09-30T11:55:28;2.10;;;1.30;;
16735;SDS011;17990;49.548;9.730;2022-09-30T11:58:07;4.00;;;2.50;;
16735;SDS011;17990;49.548;9.730;2022-09-30T12:00:37;5.03;;;2.80;;
16735;SDS011;17990;49.548;9.730;2022-09-30T12:03:11;3.53;;;2.13;;
16735;SDS011;17990;49.548;9.730;2022-09-30T12:05:44;11.10;;;4.70;;
16735;SDS011;17990;49.548;9.730;2022-09-30T12:08:16;5.90;;;1.70;;
16735;SDS011;17990;49.548;9.730;2022-09-30T12:10:47;3.83;;;1.40;;
16735;SDS011;17990;49.548;9.730;2022-09-30T12:13:20;2.70;;;1.20;;
16735;SDS011;17990;49.548;9.730;2022-09-30T12:15:51;3.73;;;2.10;;
16735;SDS011;17990;49.548;9.730;2022-09-30T12:18:24;1.57;;;0.90;;
16735;SDS011;17990;49.548;9.730;2022-09-30T12:20:57;3.00;;;1.17;;
16735;SDS011;17990;49.548;9.730;2022-09-30T12:23:30;2.37;;;0.80;;
16735;SDS011;17990;49.548;9.730;2022-09-30T12:26:01;2.40;;;1.30;;
16735;SDS011;17990;49.548;9.730;2022-09-30T12:28:31;2.30;;;1.00;;
16735;SDS011;17990;49.548;9.730;2022-09-30T12:31:29;1.60;;;0.70;;
16735;SDS011;17990;49.548;9.730;2022-09-30T12:34:16;4.47;;;0.80;;
16735;SDS011;17990;49.548;9.730;2022-09-30T12:36:59;2.50;;;0.90;;
16735;SDS011;17990;49.548;9.730;2022-09-30T12:39:55;1.50;;;0.60;;
16735;SDS011;17990;49.548;9.730;2022-09-30T12:42:47;1.63;;;0.90;;
16735;SDS011;17990;49.548;9.730;2022-09-30T12:45:53;1.83;;;0.70;;
16735;SDS011;17990;49.548;9.730;2022-09-30T12:48:32;5.07;;;1.30;;
16735;SDS011;17990;49.548;9.730;2022-09-30T12:51:05;2.10;;;1.00;;
16735;SDS011;17990;49.548;9.730;2022-09-30T12:53:33;4.47;;;1.00;;
16735;SDS011;17990;49.548;9.730;2022-09-30T12:56:03;2.83;;;1.10;;
16735;SDS011;17990;49.548;9.730;2022-09-30T12:58:34;3.67;;;0.90;;
16735;SDS011;17990;49.548;9.730;2022-09-30T13:01:05;3.47;;;1.00;;
16735;SDS011;17990;49.548;9.730;2022-09-30T13:03:44;1.73;;;1.10;;
16735;SDS011;17990;49.548;9.730;2022-09-30T13:06:18;2.00;;;1.20;;
16735;SDS011;17990;49.548;9.730;2022-09-30T13:09:17;2.37;;;1.20;;
16735;SDS011;17990;49.548;9.730;2022-09-30T13:11:46;1.90;;;1.10;;
16735;SDS011;17990;49.548;9.730;2022-09-30T13:14:40;3.10;;;1.23;;
16735;SDS011;17990;49.548;9.730;2022-09-30T13:20:00;4.83;;;1.20;;
16735;SDS011;17990;49.548;9.730;2022-09-30T13:25:23;3.63;;;1.20;;
16735;SDS011;17990;49.548;9.730;2022-09-30T13:27:51;2.67;;;1.20;;
16735;SDS011;17990;49.548;9.730;2022-09-30T13:33:40;3.03;;;1.40;;
16735;SDS011;17990;49.548;9.730;2022-09-30T13:36:17;4.20;;;2.90;;
16735;SDS011;17990;49.548;9.730;2022-09-30T13:42:02;5.93;;;4.10;;
16735;SDS011;17990;49.548;9.730;2022-09-30T13:44:39;3.90;;;2.20;;
16735;SDS011;17990;49.548;9.730;2022-09-30T13:47:25;3.30;;;1.37;;
16735;SDS011;17990;49.548;9.730;2022-09-30T13:49:56;2.90;;;1.33;;
16735;SDS011;17990;49.548;9.730;2022-09-30T13:52:29;2.13;;;1.20;;
16735;SDS011;17990;49.548;9.730;2022-09-30T13:55:01;2.33;;;1.30;;
16735;SDS011;17990;49.548;9.730;2022-09-30T13:57:36;2.43;;;1.27;;
16735;SDS011;17990;49.548;9.730;2022-09-30T14:00:13;3.80;;;1.70;;
16735;SDS011;17990;49.548;9.730;2022-09-30T14:02:50;4.33;;;1.50;;
16735;SDS011;17990;49.548;9.730;2022-09-30T14:05:33;4.00;;;1.80;;
16735;SDS011;17990;49.548;9.730;2022-09-30T14:11:51;5.47;;;1.57;;
16735;SDS011;17990;49.548;9.730;2022-09-30T14:14:44;5.27;;;1.30;;
16735;SDS011;17990;49.548;9.730;2022-09-30T14:17:56;2.60;;;1.50;;
16735;SDS011;17990;49.548;9.730;2022-09-30T14:20:52;2.30;;;1.30;;
16735;SDS011;17990;49.548;9.730;2022-09-30T14:23:36;4.90;;;1.37;;
16735;SDS011;17990;49.548;9.730;2022-09-30T14:26:08;2.80;;;1.77;;
16735;SDS011;17990;49.548;9.730;2022-09-30T14:28:53;4.47;;;2.73;;
16735;SDS011;17990;49.548;9.730;2022-09-30T14:31:27;4.23;;;2.13;;
16735;SDS011;17990;49.548;9.730;2022-09-30T14:33:58;7.60;;;3.50;;
16735;SDS011;17990;49.548;9.730;2022-09-30T14:36:25;3.53;;;1.93;;
16735;SDS011;17990;49.548;9.730;2022-09-30T14:38:52;3.53;;;2.10;;
16735;SDS011;17990;49.548;9.730;2022-09-30T14:41:23;3.53;;;1.77;;
16735;SDS011;17990;49.548;9.730;2022-09-30T14:43:54;6.93;;;2.20;;
16735;SDS011;17990;49.548;9.730;2022-09-30T14:46:28;5.17;;;2.70;;
16735;SDS011;17990;49.548;9.730;2022-09-30T14:49:00;4.37;;;2.00;;
16735;SDS011;17990;49.548;9.730;2022-09-30T14:51:34;5.10;;;3.10;;
16735;SDS011;17990;49.548;9.730;2022-09-30T14:54:13;3.77;;;2.30;;
16735;SDS011;17990;49.548;9.730;2022-09-30T14:56:43;1.43;;;1.27;;
16735;SDS011;17990;49.548;9.730;2022-09-30T14:59:14;1.97;;;1.30;;
16735;SDS011;17990;49.548;9.730;2022-09-30T15:01:44;3.63;;;1.50;;
16735;SDS011;17990;49.548;9.730;2022-09-30T15:04:14;1.87;;;1.30;;
16735;SDS011;17990;49.548;9.730;2022-09-30T15:06:44;3.70;;;2.10;;
16735;SDS011;17990;49.548;9.730;2022-09-30T15:09:15;4.07;;;2.17;;
16735;SDS011;17990;49.548;9.730;2022-09-30T15:11:46;4.37;;;1.97;;
16735;SDS011;17990;49.548;9.730;2022-09-30T15:14:16;4.43;;;2.83;;
16735;SDS011;17990;49.548;9.730;2022-09-30T15:16:46;4.90;;;2.80;;
16735;SDS011;17990;49.548;9.730;2022-09-30T15:19:19;4.73;;;2.33;;
16735;SDS011;17990;49.548;9.730;2022-09-30T15:21:48;4.97;;;2.93;;
16735;SDS011;17990;49.548;9.730;2022-09-30T15:24:18;5.57;;;2.70;;
16735;SDS011;17990;49.548;9.730;2022-09-30T15:26:47;3.60;;;2.13;;
16735;SDS011;17990;49.548;9.730;2022-09-30T15:29:17;3.70;;;2.50;;
16735;SDS011;17990;49.548;9.730;2022-09-30T15:31:46;4.47;;;2.50;;
16735;SDS011;17990;49.548;9.730;2022-09-30T15:34:16;3.70;;;2.10;;
16735;SDS011;17990;49.548;9.730;2022-09-30T15:36:46;2.67;;;2.03;;